Weather at Endelave Flyveplads

Public forecast

Using degrees Celsius for public forecast. Weather courtesy of forecast.io.

Closest aviation weather report (METAR) to Endelave Flyveplads

Closest report is Odense Airport, 17.0 nm (31.5 km) S. Retrieved 2020/11/30 12:50 UTC (31 minutes ago):

EKOD 301250Z 20009KT 9999 SCT015 BKN100 04/02 Q1018

Closest aviation forecast (TAF) to Endelave Flyveplads

Closest forecast is Aarhus Airport, 34.9 nm (64.7 km) NNE. Retrieved 2020/11/30 12:30 UTC (51 minutes ago):

TAF EKAH 301110Z 3012/0112 19010KT 9999 BKN015 TEMPO 3012/3016 4000 -RADZ BR BKN012 BECMG 3016/3018 4000 -RADZ BR BKN006 TEMPO 3018/0107 2000 RADZ BKN004 BECMG 0105/0107 08005KT BECMG 0107/0110 8000 NSW BKN012 TEMPO 0110/0112 BKN009